Metar Aviation Weather Data     EGJJ Jersey Airport
Temperature
13°C Temperature
13°C Dewpoint
100% Humidity



Wind
27 KM/H
17 MPH
8 M/S
15 KTS



220°
SW
Current Conditions

Light Drizzle Light Drizzle
Pressure 1014.9 (hPa) - 29.97 (inHg)
Visibility 4.3 (mile) - 7 (km)
Airport
Airport-code EGJJ

Location: Jersey Airport
Distance: 14 (km)

Metar:
EGJJ 280350Z AUTO 22015G27KT 7000 -DZ OVC002/// 13/13 Q1015 RERA REDZ

Time: 28-05-2024 04:50 BST